sensor_id;sensor_type;location;lat;lon;timestamp;P1;durP1;ratioP1;P2;durP2;ratioP2
8909;SDS011;4490;49.072;8.804;2022-07-23T00:01:23;8.63;;;7.82;;
8909;SDS011;4490;49.072;8.804;2022-07-23T00:03:50;7.78;;;6.97;;
8909;SDS011;4490;49.072;8.804;2022-07-23T00:06:17;8.32;;;7.57;;
8909;SDS011;4490;49.072;8.804;2022-07-23T00:08:42;8.93;;;8.05;;
8909;SDS011;4490;49.072;8.804;2022-07-23T00:11:08;8.98;;;8.10;;
8909;SDS011;4490;49.072;8.804;2022-07-23T00:13:34;8.57;;;7.80;;
8909;SDS011;4490;49.072;8.804;2022-07-23T00:16:00;8.88;;;7.97;;
8909;SDS011;4490;49.072;8.804;2022-07-23T00:18:26;9.88;;;8.20;;
8909;SDS011;4490;49.072;8.804;2022-07-23T00:20:51;8.65;;;7.90;;
8909;SDS011;4490;49.072;8.804;2022-07-23T00:23:17;9.00;;;8.15;;
8909;SDS011;4490;49.072;8.804;2022-07-23T00:25:43;9.25;;;8.18;;
8909;SDS011;4490;49.072;8.804;2022-07-23T00:28:10;9.10;;;8.23;;
8909;SDS011;4490;49.072;8.804;2022-07-23T00:30:36;8.25;;;7.55;;
8909;SDS011;4490;49.072;8.804;2022-07-23T00:33:02;9.50;;;8.60;;
8909;SDS011;4490;49.072;8.804;2022-07-23T00:35:30;8.45;;;7.75;;
8909;SDS011;4490;49.072;8.804;2022-07-23T00:37:57;9.35;;;8.35;;
8909;SDS011;4490;49.072;8.804;2022-07-23T00:40:24;8.15;;;7.40;;
8909;SDS011;4490;49.072;8.804;2022-07-23T00:42:50;8.98;;;8.18;;
8909;SDS011;4490;49.072;8.804;2022-07-23T00:45:16;9.60;;;8.60;;
8909;SDS011;4490;49.072;8.804;2022-07-23T00:47:43;9.60;;;8.45;;
8909;SDS011;4490;49.072;8.804;2022-07-23T00:50:08;9.40;;;8.60;;
8909;SDS011;4490;49.072;8.804;2022-07-23T00:52:35;9.57;;;8.68;;
8909;SDS011;4490;49.072;8.804;2022-07-23T00:55:02;9.50;;;8.50;;
8909;SDS011;4490;49.072;8.804;2022-07-23T00:57:29;9.07;;;8.20;;
8909;SDS011;4490;49.072;8.804;2022-07-23T00:59:55;9.40;;;8.38;;
8909;SDS011;4490;49.072;8.804;2022-07-23T01:02:23;10.82;;;8.50;;
8909;SDS011;4490;49.072;8.804;2022-07-23T01:04:49;8.82;;;7.97;;
8909;SDS011;4490;49.072;8.804;2022-07-23T01:07:15;8.95;;;8.05;;
8909;SDS011;4490;49.072;8.804;2022-07-23T01:09:41;9.55;;;8.35;;
8909;SDS011;4490;49.072;8.804;2022-07-23T01:12:08;9.15;;;8.25;;
8909;SDS011;4490;49.072;8.804;2022-07-23T01:14:33;8.55;;;7.78;;
8909;SDS011;4490;49.072;8.804;2022-07-23T01:16:59;8.50;;;7.70;;
8909;SDS011;4490;49.072;8.804;2022-07-23T01:19:25;8.85;;;8.02;;
8909;SDS011;4490;49.072;8.804;2022-07-23T01:21:51;9.85;;;8.38;;
8909;SDS011;4490;49.072;8.804;2022-07-23T01:24:18;10.20;;;8.23;;
8909;SDS011;4490;49.072;8.804;2022-07-23T01:26:45;9.63;;;8.73;;
8909;SDS011;4490;49.072;8.804;2022-07-23T01:29:12;9.75;;;8.85;;
8909;SDS011;4490;49.072;8.804;2022-07-23T01:31:38;9.73;;;8.77;;
8909;SDS011;4490;49.072;8.804;2022-07-23T01:34:04;9.70;;;8.70;;
8909;SDS011;4490;49.072;8.804;2022-07-23T01:36:32;11.57;;;8.50;;
8909;SDS011;4490;49.072;8.804;2022-07-23T01:39:01;10.00;;;7.90;;
8909;SDS011;4490;49.072;8.804;2022-07-23T01:41:28;9.07;;;8.15;;
8909;SDS011;4490;49.072;8.804;2022-07-23T01:43:53;11.90;;;8.88;;
8909;SDS011;4490;49.072;8.804;2022-07-23T01:46:19;9.30;;;8.30;;
8909;SDS011;4490;49.072;8.804;2022-07-23T01:48:45;10.65;;;8.57;;
8909;SDS011;4490;49.072;8.804;2022-07-23T01:51:10;9.52;;;8.63;;
8909;SDS011;4490;49.072;8.804;2022-07-23T01:53:36;10.85;;;8.55;;
8909;SDS011;4490;49.072;8.804;2022-07-23T01:56:02;9.43;;;8.63;;
8909;SDS011;4490;49.072;8.804;2022-07-23T01:58:28;9.70;;;8.80;;
8909;SDS011;4490;49.072;8.804;2022-07-23T02:00:54;10.50;;;8.80;;
8909;SDS011;4490;49.072;8.804;2022-07-23T02:03:20;9.70;;;8.70;;
8909;SDS011;4490;49.072;8.804;2022-07-23T02:05:46;9.07;;;8.07;;
8909;SDS011;4490;49.072;8.804;2022-07-23T02:08:12;11.88;;;8.10;;
8909;SDS011;4490;49.072;8.804;2022-07-23T02:10:38;9.38;;;8.50;;
8909;SDS011;4490;49.072;8.804;2022-07-23T02:13:03;11.43;;;9.40;;
8909;SDS011;4490;49.072;8.804;2022-07-23T02:15:29;9.52;;;8.55;;
8909;SDS011;4490;49.072;8.804;2022-07-23T02:17:55;10.23;;;9.10;;
8909;SDS011;4490;49.072;8.804;2022-07-23T02:20:21;10.35;;;9.30;;
8909;SDS011;4490;49.072;8.804;2022-07-23T02:22:47;10.50;;;8.95;;
8909;SDS011;4490;49.072;8.804;2022-07-23T02:25:13;9.30;;;8.40;;
8909;SDS011;4490;49.072;8.804;2022-07-23T02:27:39;11.10;;;9.65;;
8909;SDS011;4490;49.072;8.804;2022-07-23T02:30:04;10.18;;;9.15;;
8909;SDS011;4490;49.072;8.804;2022-07-23T02:32:31;10.68;;;9.60;;
8909;SDS011;4490;49.072;8.804;2022-07-23T02:34:56;10.18;;;9.15;;
8909;SDS011;4490;49.072;8.804;2022-07-23T02:37:22;10.45;;;9.10;;
8909;SDS011;4490;49.072;8.804;2022-07-23T02:39:47;10.50;;;9.50;;
8909;SDS011;4490;49.072;8.804;2022-07-23T02:42:13;12.15;;;9.52;;
8909;SDS011;4490;49.072;8.804;2022-07-23T02:44:40;9.80;;;8.90;;
8909;SDS011;4490;49.072;8.804;2022-07-23T02:47:06;10.77;;;9.70;;
8909;SDS011;4490;49.072;8.804;2022-07-23T02:49:32;10.35;;;9.32;;
8909;SDS011;4490;49.072;8.804;2022-07-23T02:51:58;11.73;;;9.38;;
8909;SDS011;4490;49.072;8.804;2022-07-23T02:54:23;10.95;;;9.15;;
8909;SDS011;4490;49.072;8.804;2022-07-23T02:56:49;11.13;;;9.90;;
8909;SDS011;4490;49.072;8.804;2022-07-23T02:59:17;9.90;;;8.88;;
8909;SDS011;4490;49.072;8.804;2022-07-23T03:01:43;10.43;;;9.32;;
8909;SDS011;4490;49.072;8.804;2022-07-23T03:04:10;9.80;;;8.90;;
8909;SDS011;4490;49.072;8.804;2022-07-23T03:06:36;10.95;;;9.95;;
8909;SDS011;4490;49.072;8.804;2022-07-23T03:09:07;10.60;;;9.50;;
8909;SDS011;4490;49.072;8.804;2022-07-23T03:11:32;11.73;;;10.52;;
8909;SDS011;4490;49.072;8.804;2022-07-23T03:13:58;9.90;;;8.95;;
8909;SDS011;4490;49.072;8.804;2022-07-23T03:16:24;11.77;;;8.68;;
8909;SDS011;4490;49.072;8.804;2022-07-23T03:18:49;10.48;;;9.45;;
8909;SDS011;4490;49.072;8.804;2022-07-23T03:21:15;10.40;;;9.40;;
8909;SDS011;4490;49.072;8.804;2022-07-23T03:23:40;11.52;;;9.73;;
8909;SDS011;4490;49.072;8.804;2022-07-23T03:26:06;10.40;;;9.35;;
8909;SDS011;4490;49.072;8.804;2022-07-23T03:28:32;11.25;;;9.00;;
8909;SDS011;4490;49.072;8.804;2022-07-23T03:30:57;10.35;;;9.35;;
8909;SDS011;4490;49.072;8.804;2022-07-23T03:33:23;9.85;;;8.85;;
8909;SDS011;4490;49.072;8.804;2022-07-23T03:35:50;8.98;;;8.07;;
8909;SDS011;4490;49.072;8.804;2022-07-23T03:38:15;12.40;;;9.38;;
8909;SDS011;4490;49.072;8.804;2022-07-23T03:40:41;12.13;;;9.45;;
8909;SDS011;4490;49.072;8.804;2022-07-23T03:43:07;9.82;;;8.82;;
8909;SDS011;4490;49.072;8.804;2022-07-23T03:45:33;11.25;;;9.27;;
8909;SDS011;4490;49.072;8.804;2022-07-23T03:47:59;12.27;;;9.52;;
8909;SDS011;4490;49.072;8.804;2022-07-23T03:50:25;10.23;;;8.88;;
8909;SDS011;4490;49.072;8.804;2022-07-23T03:52:51;9.63;;;8.70;;
8909;SDS011;4490;49.072;8.804;2022-07-23T03:55:17;11.02;;;9.35;;
8909;SDS011;4490;49.072;8.804;2022-07-23T03:57:42;9.63;;;8.73;;
8909;SDS011;4490;49.072;8.804;2022-07-23T04:00:09;10.65;;;9.38;;
8909;SDS011;4490;49.072;8.804;2022-07-23T04:02:35;10.93;;;9.13;;
8909;SDS011;4490;49.072;8.804;2022-07-23T04:05:02;10.20;;;9.10;;
8909;SDS011;4490;49.072;8.804;2022-07-23T04:07:28;9.90;;;8.77;;
8909;SDS011;4490;49.072;8.804;2022-07-23T04:09:53;9.88;;;8.98;;
8909;SDS011;4490;49.072;8.804;2022-07-23T04:12:19;10.13;;;9.15;;
8909;SDS011;4490;49.072;8.804;2022-07-23T04:14:45;10.40;;;8.38;;
8909;SDS011;4490;49.072;8.804;2022-07-23T04:17:11;9.75;;;8.77;;
8909;SDS011;4490;49.072;8.804;2022-07-23T04:19:37;9.30;;;8.40;;
8909;SDS011;4490;49.072;8.804;2022-07-23T04:22:06;10.02;;;9.10;;
8909;SDS011;4490;49.072;8.804;2022-07-23T04:24:32;10.55;;;9.32;;
8909;SDS011;4490;49.072;8.804;2022-07-23T04:26:58;10.10;;;9.07;;
8909;SDS011;4490;49.072;8.804;2022-07-23T04:29:24;10.45;;;8.93;;
8909;SDS011;4490;49.072;8.804;2022-07-23T04:31:49;10.85;;;9.85;;
8909;SDS011;4490;49.072;8.804;2022-07-23T04:34:16;10.02;;;9.02;;
8909;SDS011;4490;49.072;8.804;2022-07-23T04:36:41;12.25;;;9.52;;
8909;SDS011;4490;49.072;8.804;2022-07-23T04:39:07;10.02;;;8.90;;
8909;SDS011;4490;49.072;8.804;2022-07-23T04:41:32;12.43;;;8.73;;
8909;SDS011;4490;49.072;8.804;2022-07-23T04:43:59;9.77;;;8.77;;
8909;SDS011;4490;49.072;8.804;2022-07-23T04:46:25;9.40;;;8.50;;
8909;SDS011;4490;49.072;8.804;2022-07-23T04:48:51;9.95;;;9.00;;
8909;SDS011;4490;49.072;8.804;2022-07-23T04:51:16;9.77;;;8.82;;
8909;SDS011;4490;49.072;8.804;2022-07-23T04:53:42;10.30;;;9.25;;
8909;SDS011;4490;49.072;8.804;2022-07-23T04:56:07;13.20;;;9.60;;
8909;SDS011;4490;49.072;8.804;2022-07-23T04:58:33;10.90;;;9.82;;
8909;SDS011;4490;49.072;8.804;2022-07-23T05:00:59;11.90;;;10.00;;
8909;SDS011;4490;49.072;8.804;2022-07-23T05:03:25;9.68;;;8.77;;
8909;SDS011;4490;49.072;8.804;2022-07-23T05:05:50;10.23;;;9.13;;
8909;SDS011;4490;49.072;8.804;2022-07-23T05:08:16;9.95;;;9.00;;
8909;SDS011;4490;49.072;8.804;2022-07-23T05:10:42;9.43;;;8.40;;
8909;SDS011;4490;49.072;8.804;2022-07-23T05:13:07;10.18;;;8.93;;
8909;SDS011;4490;49.072;8.804;2022-07-23T05:15:33;9.52;;;8.57;;
8909;SDS011;4490;49.072;8.804;2022-07-23T05:17:59;9.45;;;8.40;;
8909;SDS011;4490;49.072;8.804;2022-07-23T05:20:25;9.68;;;8.85;;
8909;SDS011;4490;49.072;8.804;2022-07-23T05:22:50;9.73;;;8.65;;
8909;SDS011;4490;49.072;8.804;2022-07-23T05:25:16;10.02;;;8.80;;
8909;SDS011;4490;49.072;8.804;2022-07-23T05:27:42;10.35;;;8.93;;
8909;SDS011;4490;49.072;8.804;2022-07-23T05:30:07;14.27;;;9.65;;
8909;SDS011;4490;49.072;8.804;2022-07-23T05:32:34;11.38;;;10.32;;
8909;SDS011;4490;49.072;8.804;2022-07-23T05:35:01;11.13;;;10.13;;
8909;SDS011;4490;49.072;8.804;2022-07-23T05:37:28;12.38;;;11.20;;
8909;SDS011;4490;49.072;8.804;2022-07-23T05:39:53;10.05;;;9.15;;
8909;SDS011;4490;49.072;8.804;2022-07-23T05:42:19;10.23;;;9.23;;
8909;SDS011;4490;49.072;8.804;2022-07-23T05:44:44;10.77;;;9.68;;
8909;SDS011;4490;49.072;8.804;2022-07-23T05:47:11;12.13;;;10.80;;
8909;SDS011;4490;49.072;8.804;2022-07-23T05:49:37;11.60;;;9.63;;
8909;SDS011;4490;49.072;8.804;2022-07-23T05:52:07;11.02;;;9.38;;
8909;SDS011;4490;49.072;8.804;2022-07-23T05:54:36;10.35;;;9.25;;
8909;SDS011;4490;49.072;8.804;2022-07-23T05:57:02;9.70;;;8.77;;
8909;SDS011;4490;49.072;8.804;2022-07-23T05:59:28;10.48;;;9.15;;
8909;SDS011;4490;49.072;8.804;2022-07-23T06:01:54;11.48;;;9.45;;
8909;SDS011;4490;49.072;8.804;2022-07-23T06:04:20;10.60;;;9.27;;
8909;SDS011;4490;49.072;8.804;2022-07-23T06:06:45;11.93;;;8.27;;
8909;SDS011;4490;49.072;8.804;2022-07-23T06:09:11;11.10;;;9.73;;
8909;SDS011;4490;49.072;8.804;2022-07-23T06:11:38;10.98;;;9.25;;
8909;SDS011;4490;49.072;8.804;2022-07-23T06:14:04;10.95;;;9.63;;
8909;SDS011;4490;49.072;8.804;2022-07-23T06:16:30;11.07;;;9.93;;
8909;SDS011;4490;49.072;8.804;2022-07-23T06:18:55;10.32;;;9.18;;
8909;SDS011;4490;49.072;8.804;2022-07-23T06:21:21;10.18;;;8.95;;
8909;SDS011;4490;49.072;8.804;2022-07-23T06:23:47;12.93;;;9.07;;
8909;SDS011;4490;49.072;8.804;2022-07-23T06:26:13;10.27;;;9.38;;
8909;SDS011;4490;49.072;8.804;2022-07-23T06:28:38;14.98;;;11.00;;
8909;SDS011;4490;49.072;8.804;2022-07-23T06:31:04;13.38;;;11.55;;
8909;SDS011;4490;49.072;8.804;2022-07-23T06:33:29;12.57;;;11.32;;
8909;SDS011;4490;49.072;8.804;2022-07-23T06:35:55;14.25;;;12.75;;
8909;SDS011;4490;49.072;8.804;2022-07-23T06:38:20;17.30;;;12.15;;
8909;SDS011;4490;49.072;8.804;2022-07-23T06:40:46;15.70;;;12.20;;
8909;SDS011;4490;49.072;8.804;2022-07-23T06:43:12;13.75;;;12.30;;
8909;SDS011;4490;49.072;8.804;2022-07-23T06:45:37;14.38;;;11.88;;
8909;SDS011;4490;49.072;8.804;2022-07-23T06:48:03;15.55;;;12.15;;
8909;SDS011;4490;49.072;8.804;2022-07-23T06:50:29;16.98;;;12.02;;
8909;SDS011;4490;49.072;8.804;2022-07-23T06:52:54;12.82;;;11.63;;
8909;SDS011;4490;49.072;8.804;2022-07-23T06:55:20;18.52;;;12.38;;
8909;SDS011;4490;49.072;8.804;2022-07-23T06:57:46;14.10;;;11.65;;
8909;SDS011;4490;49.072;8.804;2022-07-23T07:00:11;13.25;;;11.43;;
8909;SDS011;4490;49.072;8.804;2022-07-23T07:02:37;11.27;;;10.07;;
8909;SDS011;4490;49.072;8.804;2022-07-23T07:05:04;10.52;;;9.52;;
8909;SDS011;4490;49.072;8.804;2022-07-23T07:07:30;11.88;;;10.60;;
8909;SDS011;4490;49.072;8.804;2022-07-23T07:09:56;11.88;;;10.27;;
8909;SDS011;4490;49.072;8.804;2022-07-23T07:12:21;11.25;;;10.15;;
8909;SDS011;4490;49.072;8.804;2022-07-23T07:14:47;11.70;;;10.10;;
8909;SDS011;4490;49.072;8.804;2022-07-23T07:17:13;11.38;;;10.20;;
8909;SDS011;4490;49.072;8.804;2022-07-23T07:19:40;11.88;;;10.20;;
8909;SDS011;4490;49.072;8.804;2022-07-23T07:22:05;10.68;;;9.57;;
8909;SDS011;4490;49.072;8.804;2022-07-23T07:24:31;10.80;;;9.70;;
8909;SDS011;4490;49.072;8.804;2022-07-23T07:26:57;13.70;;;9.80;;
8909;SDS011;4490;49.072;8.804;2022-07-23T07:29:22;12.68;;;10.80;;
8909;SDS011;4490;49.072;8.804;2022-07-23T07:31:48;11.30;;;10.20;;
8909;SDS011;4490;49.072;8.804;2022-07-23T07:34:13;10.90;;;9.43;;
8909;SDS011;4490;49.072;8.804;2022-07-23T07:36:39;10.73;;;8.75;;
8909;SDS011;4490;49.072;8.804;2022-07-23T07:39:05;10.45;;;9.45;;
8909;SDS011;4490;49.072;8.804;2022-07-23T07:41:31;9.90;;;8.90;;
8909;SDS011;4490;49.072;8.804;2022-07-23T07:43:57;9.75;;;8.60;;
8909;SDS011;4490;49.072;8.804;2022-07-23T07:46:22;10.00;;;9.05;;
8909;SDS011;4490;49.072;8.804;2022-07-23T07:48:49;9.32;;;8.43;;
8909;SDS011;4490;49.072;8.804;2022-07-23T07:51:15;8.93;;;8.13;;
8909;SDS011;4490;49.072;8.804;2022-07-23T07:53:41;9.27;;;8.23;;
8909;SDS011;4490;49.072;8.804;2022-07-23T07:56:07;9.68;;;8.75;;
8909;SDS011;4490;49.072;8.804;2022-07-23T07:58:32;10.35;;;9.25;;
8909;SDS011;4490;49.072;8.804;2022-07-23T08:00:58;9.63;;;8.65;;
8909;SDS011;4490;49.072;8.804;2022-07-23T08:03:25;9.63;;;8.55;;
8909;SDS011;4490;49.072;8.804;2022-07-23T08:05:51;9.25;;;8.35;;
8909;SDS011;4490;49.072;8.804;2022-07-23T08:08:16;10.60;;;9.15;;
8909;SDS011;4490;49.072;8.804;2022-07-23T08:10:42;9.57;;;8.65;;
8909;SDS011;4490;49.072;8.804;2022-07-23T08:13:11;11.20;;;9.27;;
8909;SDS011;4490;49.072;8.804;2022-07-23T08:15:41;12.30;;;9.02;;
8909;SDS011;4490;49.072;8.804;2022-07-23T08:18:07;9.55;;;8.70;;
8909;SDS011;4490;49.072;8.804;2022-07-23T08:20:34;9.30;;;8.48;;
8909;SDS011;4490;49.072;8.804;2022-07-23T08:23:02;8.98;;;8.18;;
8909;SDS011;4490;49.072;8.804;2022-07-23T08:25:30;8.65;;;7.85;;
8909;SDS011;4490;49.072;8.804;2022-07-23T08:28:01;11.07;;;8.02;;
8909;SDS011;4490;49.072;8.804;2022-07-23T08:30:28;8.73;;;7.93;;
8909;SDS011;4490;49.072;8.804;2022-07-23T08:32:56;8.98;;;8.10;;
8909;SDS011;4490;49.072;8.804;2022-07-23T08:35:32;9.25;;;8.30;;
8909;SDS011;4490;49.072;8.804;2022-07-23T08:38:06;12.68;;;8.25;;
8909;SDS011;4490;49.072;8.804;2022-07-23T08:40:34;8.80;;;8.00;;
8909;SDS011;4490;49.072;8.804;2022-07-23T08:43:04;8.93;;;8.13;;
8909;SDS011;4490;49.072;8.804;2022-07-23T08:45:31;8.80;;;7.95;;
8909;SDS011;4490;49.072;8.804;2022-07-23T08:48:02;9.25;;;8.35;;
8909;SDS011;4490;49.072;8.804;2022-07-23T08:50:30;8.80;;;7.90;;
8909;SDS011;4490;49.072;8.804;2022-07-23T08:52:56;9.10;;;7.82;;
8909;SDS011;4490;49.072;8.804;2022-07-23T08:55:24;8.27;;;7.53;;
8909;SDS011;4490;49.072;8.804;2022-07-23T08:57:50;8.13;;;7.43;;
8909;SDS011;4490;49.072;8.804;2022-07-23T09:00:17;9.00;;;8.10;;
8909;SDS011;4490;49.072;8.804;2022-07-23T09:02:46;8.10;;;7.00;;
8909;SDS011;4490;49.072;8.804;2022-07-23T09:05:12;8.75;;;7.85;;
8909;SDS011;4490;49.072;8.804;2022-07-23T09:10:30;8.85;;;7.93;;
8909;SDS011;4490;49.072;8.804;2022-07-23T09:16:18;7.75;;;7.05;;
8909;SDS011;4490;49.072;8.804;2022-07-23T09:18:55;7.97;;;7.18;;
8909;SDS011;4490;49.072;8.804;2022-07-23T09:21:26;8.05;;;7.28;;
8909;SDS011;4490;49.072;8.804;2022-07-23T09:26:30;8.10;;;7.28;;
8909;SDS011;4490;49.072;8.804;2022-07-23T09:29:11;7.07;;;6.47;;
8909;SDS011;4490;49.072;8.804;2022-07-23T09:31:49;7.72;;;6.88;;
8909;SDS011;4490;49.072;8.804;2022-07-23T09:34:22;6.95;;;6.13;;
8909;SDS011;4490;49.072;8.804;2022-07-23T09:36:56;8.00;;;7.18;;
8909;SDS011;4490;49.072;8.804;2022-07-23T09:39:30;7.30;;;6.70;;
8909;SDS011;4490;49.072;8.804;2022-07-23T09:41:58;7.25;;;6.60;;
8909;SDS011;4490;49.072;8.804;2022-07-23T09:44:42;7.65;;;7.05;;
8909;SDS011;4490;49.072;8.804;2022-07-23T09:47:12;8.25;;;7.40;;
8909;SDS011;4490;49.072;8.804;2022-07-23T09:49:39;6.95;;;6.35;;
8909;SDS011;4490;49.072;8.804;2022-07-23T09:52:04;7.55;;;6.75;;
8909;SDS011;4490;49.072;8.804;2022-07-23T09:54:34;6.50;;;5.90;;
8909;SDS011;4490;49.072;8.804;2022-07-23T09:57:05;7.13;;;6.43;;
8909;SDS011;4490;49.072;8.804;2022-07-23T09:59:37;6.70;;;6.20;;
8909;SDS011;4490;49.072;8.804;2022-07-23T10:02:05;6.68;;;6.07;;
8909;SDS011;4490;49.072;8.804;2022-07-23T10:04:32;7.22;;;6.63;;
8909;SDS011;4490;49.072;8.804;2022-07-23T10:06:59;7.47;;;6.78;;
8909;SDS011;4490;49.072;8.804;2022-07-23T10:09:28;6.97;;;6.35;;
8909;SDS011;4490;49.072;8.804;2022-07-23T10:11:56;6.95;;;6.40;;
8909;SDS011;4490;49.072;8.804;2022-07-23T10:14:27;6.90;;;6.30;;
8909;SDS011;4490;49.072;8.804;2022-07-23T10:16:56;7.22;;;6.55;;
8909;SDS011;4490;49.072;8.804;2022-07-23T10:19:22;7.05;;;6.43;;
8909;SDS011;4490;49.072;8.804;2022-07-23T10:21:49;7.43;;;6.72;;
8909;SDS011;4490;49.072;8.804;2022-07-23T10:27:09;8.00;;;7.30;;
8909;SDS011;4490;49.072;8.804;2022-07-23T10:29:55;7.90;;;7.20;;
8909;SDS011;4490;49.072;8.804;2022-07-23T10:32:52;8.00;;;7.20;;
8909;SDS011;4490;49.072;8.804;2022-07-23T10:38:27;7.25;;;6.68;;
8909;SDS011;4490;49.072;8.804;2022-07-23T10:41:04;8.43;;;7.68;;
8909;SDS011;4490;49.072;8.804;2022-07-23T10:43:30;8.23;;;7.47;;
8909;SDS011;4490;49.072;8.804;2022-07-23T10:49:26;7.85;;;7.10;;
8909;SDS011;4490;49.072;8.804;2022-07-23T10:54:42;8.18;;;7.47;;
8909;SDS011;4490;49.072;8.804;2022-07-23T10:57:11;8.77;;;7.97;;
8909;SDS011;4490;49.072;8.804;2022-07-23T11:02:26;9.30;;;8.43;;
8909;SDS011;4490;49.072;8.804;2022-07-23T11:04:58;9.05;;;8.27;;
8909;SDS011;4490;49.072;8.804;2022-07-23T11:07:25;8.02;;;7.38;;
8909;SDS011;4490;49.072;8.804;2022-07-23T11:09:51;8.20;;;7.50;;
8909;SDS011;4490;49.072;8.804;2022-07-23T11:17:58;8.75;;;7.88;;
8909;SDS011;4490;49.072;8.804;2022-07-23T11:20:27;9.00;;;8.13;;
8909;SDS011;4490;49.072;8.804;2022-07-23T11:22:56;8.93;;;8.10;;
8909;SDS011;4490;49.072;8.804;2022-07-23T11:27:55;9.05;;;8.23;;
8909;SDS011;4490;49.072;8.804;2022-07-23T11:35:32;8.57;;;7.78;;
8909;SDS011;4490;49.072;8.804;2022-07-23T11:38:05;8.65;;;7.85;;
8909;SDS011;4490;49.072;8.804;2022-07-23T11:40:32;7.88;;;7.18;;
8909;SDS011;4490;49.072;8.804;2022-07-23T11:42:59;7.97;;;7.20;;
8909;SDS011;4490;49.072;8.804;2022-07-23T11:45:43;9.80;;;8.90;;
8909;SDS011;4490;49.072;8.804;2022-07-23T11:48:17;8.55;;;7.68;;
8909;SDS011;4490;49.072;8.804;2022-07-23T11:50:51;6.82;;;6.32;;
8909;SDS011;4490;49.072;8.804;2022-07-23T11:53:28;7.13;;;6.53;;
8909;SDS011;4490;49.072;8.804;2022-07-23T11:56:05;7.38;;;6.70;;
8909;SDS011;4490;49.072;8.804;2022-07-23T11:58:32;7.68;;;6.97;;
8909;SDS011;4490;49.072;8.804;2022-07-23T12:00:58;7.20;;;6.50;;
8909;SDS011;4490;49.072;8.804;2022-07-23T12:03:24;7.05;;;6.45;;
8909;SDS011;4490;49.072;8.804;2022-07-23T12:05:50;7.82;;;6.45;;
8909;SDS011;4490;49.072;8.804;2022-07-23T12:08:22;7.07;;;6.40;;
8909;SDS011;4490;49.072;8.804;2022-07-23T12:10:48;7.28;;;6.75;;
8909;SDS011;4490;49.072;8.804;2022-07-23T12:13:15;7.57;;;6.93;;
8909;SDS011;4490;49.072;8.804;2022-07-23T12:15:50;7.30;;;6.65;;
8909;SDS011;4490;49.072;8.804;2022-07-23T12:18:24;6.85;;;6.25;;
8909;SDS011;4490;49.072;8.804;2022-07-23T12:20:51;8.15;;;6.88;;
8909;SDS011;4490;49.072;8.804;2022-07-23T12:23:19;8.13;;;7.43;;
8909;SDS011;4490;49.072;8.804;2022-07-23T12:25:46;8.35;;;7.40;;
8909;SDS011;4490;49.072;8.804;2022-07-23T12:28:17;7.60;;;6.90;;
8909;SDS011;4490;49.072;8.804;2022-07-23T12:30:53;8.35;;;7.30;;
8909;SDS011;4490;49.072;8.804;2022-07-23T12:33:23;7.57;;;6.88;;
8909;SDS011;4490;49.072;8.804;2022-07-23T12:36:03;7.13;;;6.50;;
8909;SDS011;4490;49.072;8.804;2022-07-23T12:38:37;7.03;;;6.38;;
8909;SDS011;4490;49.072;8.804;2022-07-23T12:41:04;8.15;;;7.00;;
8909;SDS011;4490;49.072;8.804;2022-07-23T12:43:36;7.78;;;7.15;;
8909;SDS011;4490;49.072;8.804;2022-07-23T12:48:34;8.30;;;7.50;;
8909;SDS011;4490;49.072;8.804;2022-07-23T12:56:08;8.05;;;7.35;;
8909;SDS011;4490;49.072;8.804;2022-07-23T12:58:40;7.93;;;7.22;;
8909;SDS011;4490;49.072;8.804;2022-07-23T13:01:08;8.18;;;7.38;;
8909;SDS011;4490;49.072;8.804;2022-07-23T13:03:39;7.60;;;6.90;;
8909;SDS011;4490;49.072;8.804;2022-07-23T13:06:07;8.10;;;7.40;;
8909;SDS011;4490;49.072;8.804;2022-07-23T13:08:35;7.70;;;7.10;;
8909;SDS011;4490;49.072;8.804;2022-07-23T13:11:02;7.40;;;6.80;;
8909;SDS011;4490;49.072;8.804;2022-07-23T13:13:30;8.82;;;8.02;;
8909;SDS011;4490;49.072;8.804;2022-07-23T13:15:56;8.80;;;8.00;;
8909;SDS011;4490;49.072;8.804;2022-07-23T13:18:23;8.30;;;7.60;;
8909;SDS011;4490;49.072;8.804;2022-07-23T13:20:49;8.27;;;7.45;;
8909;SDS011;4490;49.072;8.804;2022-07-23T13:23:15;9.15;;;8.23;;
8909;SDS011;4490;49.072;8.804;2022-07-23T13:25:41;8.57;;;7.88;;
8909;SDS011;4490;49.072;8.804;2022-07-23T13:28:07;8.82;;;8.10;;
8909;SDS011;4490;49.072;8.804;2022-07-23T13:30:33;8.82;;;7.93;;
8909;SDS011;4490;49.072;8.804;2022-07-23T13:33:00;8.68;;;7.97;;
8909;SDS011;4490;49.072;8.804;2022-07-23T13:35:28;9.10;;;8.13;;
8909;SDS011;4490;49.072;8.804;2022-07-23T13:37:53;9.70;;;8.15;;
8909;SDS011;4490;49.072;8.804;2022-07-23T13:40:19;8.93;;;8.15;;
8909;SDS011;4490;49.072;8.804;2022-07-23T13:42:45;9.32;;;8.23;;
8909;SDS011;4490;49.072;8.804;2022-07-23T13:45:10;7.97;;;7.38;;
8909;SDS011;4490;49.072;8.804;2022-07-23T13:47:36;7.97;;;7.38;;
8909;SDS011;4490;49.072;8.804;2022-07-23T13:50:02;9.43;;;8.45;;
8909;SDS011;4490;49.072;8.804;2022-07-23T13:52:28;8.48;;;7.75;;
8909;SDS011;4490;49.072;8.804;2022-07-23T13:54:54;8.73;;;7.93;;
8909;SDS011;4490;49.072;8.804;2022-07-23T13:57:19;8.80;;;8.10;;
8909;SDS011;4490;49.072;8.804;2022-07-23T13:59:45;8.82;;;8.02;;
8909;SDS011;4490;49.072;8.804;2022-07-23T14:02:10;9.45;;;8.45;;
8909;SDS011;4490;49.072;8.804;2022-07-23T14:04:40;8.85;;;8.10;;
8909;SDS011;4490;49.072;8.804;2022-07-23T14:07:06;8.82;;;8.10;;
8909;SDS011;4490;49.072;8.804;2022-07-23T14:09:32;9.30;;;8.50;;
8909;SDS011;4490;49.072;8.804;2022-07-23T14:11:59;9.35;;;8.27;;
8909;SDS011;4490;49.072;8.804;2022-07-23T14:14:25;8.50;;;7.78;;
8909;SDS011;4490;49.072;8.804;2022-07-23T14:16:50;9.57;;;8.50;;
8909;SDS011;4490;49.072;8.804;2022-07-23T14:19:16;9.02;;;8.23;;
8909;SDS011;4490;49.072;8.804;2022-07-23T14:21:42;8.77;;;8.07;;
8909;SDS011;4490;49.072;8.804;2022-07-23T14:24:08;9.00;;;8.13;;
8909;SDS011;4490;49.072;8.804;2022-07-23T14:26:33;8.57;;;7.88;;
8909;SDS011;4490;49.072;8.804;2022-07-23T14:28:59;8.73;;;7.93;;
8909;SDS011;4490;49.072;8.804;2022-07-23T14:31:26;8.52;;;7.80;;
8909;SDS011;4490;49.072;8.804;2022-07-23T14:33:51;9.10;;;8.30;;
8909;SDS011;4490;49.072;8.804;2022-07-23T14:36:17;8.65;;;7.95;;
8909;SDS011;4490;49.072;8.804;2022-07-23T14:38:43;8.98;;;8.27;;
8909;SDS011;4490;49.072;8.804;2022-07-23T14:41:08;8.15;;;7.47;;
8909;SDS011;4490;49.072;8.804;2022-07-23T14:43:34;8.77;;;7.93;;
8909;SDS011;4490;49.072;8.804;2022-07-23T14:46:00;8.73;;;7.90;;
8909;SDS011;4490;49.072;8.804;2022-07-23T14:48:26;8.52;;;7.72;;
8909;SDS011;4490;49.072;8.804;2022-07-23T14:50:51;8.70;;;7.82;;
8909;SDS011;4490;49.072;8.804;2022-07-23T14:53:17;8.48;;;7.68;;
8909;SDS011;4490;49.072;8.804;2022-07-23T14:55:43;8.18;;;7.47;;
8909;SDS011;4490;49.072;8.804;2022-07-23T14:58:08;8.05;;;7.32;;
8909;SDS011;4490;49.072;8.804;2022-07-23T15:00:34;8.73;;;8.00;;
8909;SDS011;4490;49.072;8.804;2022-07-23T15:03:00;8.05;;;7.43;;
8909;SDS011;4490;49.072;8.804;2022-07-23T15:05:26;8.10;;;7.40;;
8909;SDS011;4490;49.072;8.804;2022-07-23T15:07:53;8.25;;;7.65;;
8909;SDS011;4490;49.072;8.804;2022-07-23T15:10:18;8.20;;;7.38;;
8909;SDS011;4490;49.072;8.804;2022-07-23T15:12:44;7.78;;;7.03;;
8909;SDS011;4490;49.072;8.804;2022-07-23T15:15:10;9.32;;;7.97;;
8909;SDS011;4490;49.072;8.804;2022-07-23T15:17:35;8.77;;;7.88;;
8909;SDS011;4490;49.072;8.804;2022-07-23T15:20:01;8.65;;;7.82;;
8909;SDS011;4490;49.072;8.804;2022-07-23T15:22:28;9.30;;;8.25;;
8909;SDS011;4490;49.072;8.804;2022-07-23T15:24:53;9.10;;;8.30;;
8909;SDS011;4490;49.072;8.804;2022-07-23T15:27:19;8.82;;;7.97;;
8909;SDS011;4490;49.072;8.804;2022-07-23T15:29:45;9.20;;;8.40;;
8909;SDS011;4490;49.072;8.804;2022-07-23T15:32:11;8.90;;;8.00;;
8909;SDS011;4490;49.072;8.804;2022-07-23T15:34:37;9.45;;;8.55;;
8909;SDS011;4490;49.072;8.804;2022-07-23T15:37:04;9.10;;;8.30;;
8909;SDS011;4490;49.072;8.804;2022-07-23T15:39:32;8.85;;;8.05;;
8909;SDS011;4490;49.072;8.804;2022-07-23T15:41:59;9.05;;;8.15;;
8909;SDS011;4490;49.072;8.804;2022-07-23T15:44:25;9.13;;;8.38;;
8909;SDS011;4490;49.072;8.804;2022-07-23T15:46:50;10.23;;;8.82;;
8909;SDS011;4490;49.072;8.804;2022-07-23T15:49:16;9.60;;;8.52;;
8909;SDS011;4490;49.072;8.804;2022-07-23T15:51:43;9.63;;;8.65;;
8909;SDS011;4490;49.072;8.804;2022-07-23T15:54:09;9.43;;;8.63;;